sensor_id;sensor_type;location;lat;lon;timestamp;P1;durP1;ratioP1;P2;durP2;ratioP2
9288;SDS011;4683;50.864;12.086;2022-08-19T08:56:17;31.97;;;28.53;;
9288;SDS011;4683;50.864;12.086;2022-08-19T08:58:50;32.97;;;29.47;;
9288;SDS011;4683;50.864;12.086;2022-08-19T09:01:26;31.00;;;27.93;;
9288;SDS011;4683;50.864;12.086;2022-08-19T09:03:55;33.33;;;30.07;;
9288;SDS011;4683;50.864;12.086;2022-08-19T13:04:45;6.77;;;6.17;;
9288;SDS011;4683;50.864;12.086;2022-08-19T13:07:15;7.03;;;6.37;;
9288;SDS011;4683;50.864;12.086;2022-08-19T13:09:43;6.73;;;6.13;;
9288;SDS011;4683;50.864;12.086;2022-08-19T14:11:49;7.20;;;6.60;;
9288;SDS011;4683;50.864;12.086;2022-08-19T14:14:18;7.60;;;7.00;;
9288;SDS011;4683;50.864;12.086;2022-08-19T14:16:47;7.23;;;6.73;;
9288;SDS011;4683;50.864;12.086;2022-08-19T14:19:18;7.53;;;6.93;;
9288;SDS011;4683;50.864;12.086;2022-08-19T14:21:47;6.60;;;6.00;;
9288;SDS011;4683;50.864;12.086;2022-08-19T14:24:22;7.23;;;6.63;;
9288;SDS011;4683;50.864;12.086;2022-08-19T14:26:53;7.20;;;6.47;;
9288;SDS011;4683;50.864;12.086;2022-08-19T15:49:14;5.60;;;5.10;;
9288;SDS011;4683;50.864;12.086;2022-08-19T15:51:45;4.93;;;4.60;;
9288;SDS011;4683;50.864;12.086;2022-08-19T15:54:18;5.50;;;5.00;;
9288;SDS011;4683;50.864;12.086;2022-08-19T15:56:48;7.03;;;6.43;;
9288;SDS011;4683;50.864;12.086;2022-08-19T15:59:35;4.93;;;4.47;;
9288;SDS011;4683;50.864;12.086;2022-08-19T18:48:50;7.63;;;6.80;;
9288;SDS011;4683;50.864;12.086;2022-08-19T18:51:30;7.40;;;6.80;;
9288;SDS011;4683;50.864;12.086;2022-08-19T18:54:01;7.80;;;7.10;;
9288;SDS011;4683;50.864;12.086;2022-08-19T18:56:30;8.63;;;7.83;;
9288;SDS011;4683;50.864;12.086;2022-08-19T18:59:00;7.80;;;7.20;;
9288;SDS011;4683;50.864;12.086;2022-08-19T19:30:57;7.70;;;7.00;;
9288;SDS011;4683;50.864;12.086;2022-08-19T19:33:26;8.20;;;6.70;;
9288;SDS011;4683;50.864;12.086;2022-08-19T19:35:54;9.50;;;8.67;;
9288;SDS011;4683;50.864;12.086;2022-08-19T20:59:54;9.47;;;8.67;;
9288;SDS011;4683;50.864;12.086;2022-08-19T21:02:23;7.30;;;6.70;;
9288;SDS011;4683;50.864;12.086;2022-08-19T21:04:52;7.43;;;6.83;;
9288;SDS011;4683;50.864;12.086;2022-08-19T21:07:21;7.00;;;6.30;;
9288;SDS011;4683;50.864;12.086;2022-08-19T21:09:50;7.60;;;6.90;;
9288;SDS011;4683;50.864;12.086;2022-08-19T21:12:18;7.87;;;7.10;;
9288;SDS011;4683;50.864;12.086;2022-08-19T21:44:25;7.70;;;7.10;;
9288;SDS011;4683;50.864;12.086;2022-08-19T21:46:54;7.53;;;6.93;;
9288;SDS011;4683;50.864;12.086;2022-08-19T21:49:23;8.03;;;7.23;;
9288;SDS011;4683;50.864;12.086;2022-08-19T21:51:52;8.53;;;7.77;;
9288;SDS011;4683;50.864;12.086;2022-08-19T21:54:23;8.60;;;7.87;;
9288;SDS011;4683;50.864;12.086;2022-08-19T21:56:53;9.33;;;8.53;;
9288;SDS011;4683;50.864;12.086;2022-08-19T22:56:16;9.77;;;8.87;;
9288;SDS011;4683;50.864;12.086;2022-08-19T22:58:45;9.93;;;9.00;;
9288;SDS011;4683;50.864;12.086;2022-08-19T23:01:16;10.20;;;9.30;;
9288;SDS011;4683;50.864;12.086;2022-08-19T23:03:46;10.90;;;10.03;;
9288;SDS011;4683;50.864;12.086;2022-08-19T23:06:14;10.07;;;9.27;;
9288;SDS011;4683;50.864;12.086;2022-08-19T23:08:45;15.80;;;14.43;;
9288;SDS011;4683;50.864;12.086;2022-08-19T23:11:13;18.97;;;17.17;;
9288;SDS011;4683;50.864;12.086;2022-08-19T23:13:44;14.13;;;12.83;;
9288;SDS011;4683;50.864;12.086;2022-08-19T23:16:15;10.27;;;9.50;;
9288;SDS011;4683;50.864;12.086;2022-08-19T23:18:43;15.97;;;14.57;;
9288;SDS011;4683;50.864;12.086;2022-08-19T23:21:13;12.93;;;11.73;;
9288;SDS011;4683;50.864;12.086;2022-08-19T23:23:42;11.17;;;10.20;;
9288;SDS011;4683;50.864;12.086;2022-08-19T23:26:12;11.80;;;10.73;;
9288;SDS011;4683;50.864;12.086;2022-08-19T23:28:42;10.77;;;9.90;;
9288;SDS011;4683;50.864;12.086;2022-08-19T23:31:27;11.40;;;10.50;;
9288;SDS011;4683;50.864;12.086;2022-08-19T23:33:55;10.83;;;10.00;;
9288;SDS011;4683;50.864;12.086;2022-08-19T23:36:24;11.37;;;10.30;;
9288;SDS011;4683;50.864;12.086;2022-08-19T23:38:54;11.83;;;10.80;;
9288;SDS011;4683;50.864;12.086;2022-08-19T23:41:25;13.60;;;12.40;;
9288;SDS011;4683;50.864;12.086;2022-08-19T23:43:54;12.83;;;11.73;;
9288;SDS011;4683;50.864;12.086;2022-08-19T23:46:24;12.37;;;11.17;;
9288;SDS011;4683;50.864;12.086;2022-08-19T23:48:53;11.67;;;10.67;;
9288;SDS011;4683;50.864;12.086;2022-08-19T23:51:23;15.00;;;13.67;;
9288;SDS011;4683;50.864;12.086;2022-08-19T23:53:51;13.47;;;12.37;;
9288;SDS011;4683;50.864;12.086;2022-08-19T23:56:21;13.27;;;12.07;;
9288;SDS011;4683;50.864;12.086;2022-08-19T23:58:51;12.97;;;11.83;;
